Time;durP1;ratioP1;P1;durP2;ratioP2;P2;SDS_P1;SDS_P2;PMS_P1;PMS_P2;Temp;Humidity;BMP_temperature;BMP_pressure;BME280_temperature;BME280_humidity;BME280_pressure;Samples;Min_cycle;Max_cycle;Signal;HPM_P1;HPM_P2
2023/11/13 00:00:39;;;;;;;0.55;0.55;;;;;;;;;;4952651;29;20490;-72
2023/11/13 00:03:07;;;;;;;0.40;0.40;;;;;;;;;;4952571;29;20038;-73
2023/11/13 00:05:33;;;;;;;0.57;0.57;;;;;;;;;;4953226;29;20042;-73
2023/11/13 00:08:00;;;;;;;0.50;0.50;;;;;;;;;;4952869;29;20051;-73
2023/11/13 00:10:26;;;;;;;0.50;0.50;;;;;;;;;;4953179;29;20067;-72
2023/11/13 00:12:52;;;;;;;0.40;0.40;;;;;;;;;;4954454;29;20050;-72
2023/11/13 00:15:19;;;;;;;0.40;0.40;;;;;;;;;;4952271;29;20035;-73
2023/11/13 00:17:45;;;;;;;0.50;0.50;;;;;;;;;;4951238;29;20126;-70
2023/11/13 00:20:11;;;;;;;0.40;0.40;;;;;;;;;;4952085;29;20122;-72
2023/11/13 00:22:37;;;;;;;0.40;0.40;;;;;;;;;;4952568;29;20042;-73
2023/11/13 00:25:05;;;;;;;0.43;0.43;;;;;;;;;;4952370;29;20058;-72
2023/11/13 00:27:31;;;;;;;0.32;0.32;;;;;;;;;;4951394;29;20066;-73
2023/11/13 00:29:57;;;;;;;0.50;0.50;;;;;;;;;;4952048;29;20058;-73
2023/11/13 00:32:23;;;;;;;0.57;0.57;;;;;;;;;;4942386;29;20043;-73
2023/11/13 00:34:49;;;;;;;0.55;0.55;;;;;;;;;;4957003;29;20403;-72
2023/11/13 00:37:15;;;;;;;0.70;0.60;;;;;;;;;;4956206;29;20144;-72
2023/11/13 00:39:42;;;;;;;0.70;0.70;;;;;;;;;;4953627;29;20045;-73
2023/11/13 00:42:11;;;;;;;0.60;0.60;;;;;;;;;;4952254;29;20043;-72
2023/11/13 00:44:37;;;;;;;0.60;0.60;;;;;;;;;;4934867;29;20043;-72
2023/11/13 00:47:03;;;;;;;0.50;0.50;;;;;;;;;;4951149;29;20038;-74
2023/11/13 00:49:29;;;;;;;0.50;0.50;;;;;;;;;;4952148;29;20050;-73
2023/11/13 00:51:55;;;;;;;0.52;0.40;;;;;;;;;;4955102;29;20097;-73
2023/11/13 00:54:21;;;;;;;0.50;0.50;;;;;;;;;;4952452;29;20057;-72
2023/11/13 00:56:48;;;;;;;0.40;0.40;;;;;;;;;;4962818;29;20039;-73
2023/11/13 00:59:14;;;;;;;0.60;0.60;;;;;;;;;;4934710;29;20043;-73
2023/11/13 01:01:40;;;;;;;0.70;0.70;;;;;;;;;;4955863;29;20062;-74
2023/11/13 01:04:06;;;;;;;0.55;0.55;;;;;;;;;;4958658;29;20043;-73
2023/11/13 01:06:32;;;;;;;0.50;0.50;;;;;;;;;;4941358;29;20031;-73
2023/11/13 01:08:58;;;;;;;0.60;0.60;;;;;;;;;;4941554;29;20054;-73
2023/11/13 01:11:24;;;;;;;0.60;0.60;;;;;;;;;;4959696;29;20031;-73
2023/11/13 01:13:51;;;;;;;0.50;0.50;;;;;;;;;;4959906;29;20535;-73
2023/11/13 01:16:18;;;;;;;0.50;0.50;;;;;;;;;;4959360;29;20031;-74
2023/11/13 01:18:47;;;;;;;0.50;0.50;;;;;;;;;;4958437;29;20070;-73
2023/11/13 01:21:15;;;;;;;0.47;0.47;;;;;;;;;;4939017;29;20412;-73
2023/11/13 01:23:42;;;;;;;0.40;0.40;;;;;;;;;;4955768;29;20130;-72
2023/11/13 01:26:08;;;;;;;0.77;0.60;;;;;;;;;;4955452;29;20035;-73
2023/11/13 01:28:35;;;;;;;0.40;0.40;;;;;;;;;;4955514;29;20050;-73
2023/11/13 01:31:02;;;;;;;0.40;0.40;;;;;;;;;;4939008;29;20042;-73
2023/11/13 01:33:28;;;;;;;0.40;0.40;;;;;;;;;;4956070;29;20410;-74
2023/11/13 01:35:54;;;;;;;0.75;0.75;;;;;;;;;;4956510;29;20028;-73
2023/11/13 01:38:20;;;;;;;3.20;0.75;;;;;;;;;;4955595;29;20071;-72
2023/11/13 01:40:48;;;;;;;0.50;0.50;;;;;;;;;;4954120;29;20055;-72
2023/11/13 01:43:18;;;;;;;0.60;0.60;;;;;;;;;;4929441;29;20047;-72
2023/11/13 01:45:44;;;;;;;1.27;1.20;;;;;;;;;;4903098;29;20023;-73
2023/11/13 01:48:10;;;;;;;0.60;0.60;;;;;;;;;;4935830;29;20102;-73
2023/11/13 01:50:36;;;;;;;0.70;0.70;;;;;;;;;;4918921;29;20055;-73
2023/11/13 01:53:02;;;;;;;0.80;0.50;;;;;;;;;;4935836;29;20549;-73
2023/11/13 01:55:29;;;;;;;0.55;0.55;;;;;;;;;;4935635;29;20044;-72
2023/11/13 01:57:55;;;;;;;0.60;0.60;;;;;;;;;;4903189;29;20044;-73
2023/11/13 02:00:21;;;;;;;0.50;0.50;;;;;;;;;;4918386;29;20035;-73
2023/11/13 02:02:48;;;;;;;0.70;0.70;;;;;;;;;;4919150;29;20059;-72
2023/11/13 02:05:15;;;;;;;0.70;0.70;;;;;;;;;;4920606;29;20209;-73
2023/11/13 02:07:41;;;;;;;3.35;3.10;;;;;;;;;;4905715;29;20047;-72
2023/11/13 02:10:08;;;;;;;4.90;2.97;;;;;;;;;;4921339;29;20032;-74
2023/11/13 02:12:34;;;;;;;1.70;1.60;;;;;;;;;;4938382;29;20048;-73
2023/11/13 02:15:04;;;;;;;0.70;0.70;;;;;;;;;;4938468;29;20039;-73
2023/11/13 02:17:33;;;;;;;0.60;0.60;;;;;;;;;;4937965;29;20407;-73
2023/11/13 02:19:59;;;;;;;0.77;0.77;;;;;;;;;;4938525;29;20046;-73
2023/11/13 02:22:25;;;;;;;2.83;0.80;;;;;;;;;;4919834;29;20114;-73
2023/11/13 02:24:51;;;;;;;1.10;1.10;;;;;;;;;;4918806;29;20048;-74
2023/11/13 02:27:18;;;;;;;0.98;0.98;;;;;;;;;;4935505;29;20039;-74
2023/11/13 02:29:44;;;;;;;1.05;1.05;;;;;;;;;;4918696;29;20055;-73
2023/11/13 02:32:10;;;;;;;0.85;0.85;;;;;;;;;;4935656;29;20039;-73
2023/11/13 02:34:36;;;;;;;1.17;1.17;;;;;;;;;;4917776;29;20074;-74
2023/11/13 02:37:03;;;;;;;0.77;0.77;;;;;;;;;;4933524;29;20035;-74
2023/11/13 02:39:29;;;;;;;0.93;0.93;;;;;;;;;;4952966;29;20077;-75
2023/11/13 02:41:55;;;;;;;0.80;0.80;;;;;;;;;;4954552;29;20414;-74
2023/11/13 02:44:21;;;;;;;2.63;0.75;;;;;;;;;;4953968;29;20035;-73
2023/11/13 02:46:47;;;;;;;0.90;0.90;;;;;;;;;;4954074;29;20062;-74
2023/11/13 02:49:13;;;;;;;1.08;1.08;;;;;;;;;;4937013;29;20406;-74
2023/11/13 02:51:41;;;;;;;0.70;0.70;;;;;;;;;;4954088;29;20055;-74
2023/11/13 02:54:08;;;;;;;0.90;0.90;;;;;;;;;;4952747;29;20047;-73
2023/11/13 02:56:34;;;;;;;0.70;0.70;;;;;;;;;;4953906;29;20118;-73
2023/11/13 02:59:00;;;;;;;0.65;0.65;;;;;;;;;;4952782;29;20573;-73
2023/11/13 03:01:26;;;;;;;0.95;0.95;;;;;;;;;;4953727;29;20418;-74
2023/11/13 03:03:52;;;;;;;0.90;0.90;;;;;;;;;;4953684;29;20043;-74
2023/11/13 03:06:20;;;;;;;1.00;1.00;;;;;;;;;;4954209;29;20559;-75
2023/11/13 03:08:46;;;;;;;1.02;1.00;;;;;;;;;;4953323;29;20039;-76
2023/11/13 03:11:13;;;;;;;0.82;0.82;;;;;;;;;;4950241;29;20490;-74
2023/11/13 03:13:42;;;;;;;0.65;0.65;;;;;;;;;;4948500;29;20053;-74
2023/11/13 03:16:09;;;;;;;0.82;0.82;;;;;;;;;;4953727;29;20473;-73
2023/11/13 03:18:36;;;;;;;1.05;0.77;;;;;;;;;;4953316;29;20031;-74
2023/11/13 03:21:02;;;;;;;1.17;1.08;;;;;;;;;;4953669;29;20528;-74
2023/11/13 03:23:28;;;;;;;1.00;0.90;;;;;;;;;;4952499;28;20125;-74
2023/11/13 03:25:54;;;;;;;0.73;0.73;;;;;;;;;;4952294;29;20472;-74
2023/11/13 03:28:21;;;;;;;0.90;0.90;;;;;;;;;;4953193;29;20575;-74
2023/11/13 03:30:50;;;;;;;0.73;0.73;;;;;;;;;;4952078;29;20060;-73
2023/11/13 03:33:16;;;;;;;1.00;1.00;;;;;;;;;;4930113;29;20470;-74
2023/11/13 03:35:43;;;;;;;0.82;0.82;;;;;;;;;;4928752;29;20035;-74
2023/11/13 03:38:09;;;;;;;0.70;0.70;;;;;;;;;;4942455;29;20038;-73
2023/11/13 03:40:35;;;;;;;2.35;0.85;;;;;;;;;;4942534;29;20042;-74
2023/11/13 03:43:02;;;;;;;0.80;0.80;;;;;;;;;;4928171;29;20137;-73
2023/11/13 03:45:28;;;;;;;1.50;1.40;;;;;;;;;;4954029;29;20050;-73
2023/11/13 03:47:54;;;;;;;1.10;1.10;;;;;;;;;;4955726;29;20055;-75
2023/11/13 03:50:20;;;;;;;2.55;1.00;;;;;;;;;;4945102;29;20114;-72
2023/11/13 03:52:46;;;;;;;1.25;1.17;;;;;;;;;;4942563;29;20047;-74
2023/11/13 03:55:12;;;;;;;0.70;0.70;;;;;;;;;;4943543;29;20040;-73
2023/11/13 03:57:39;;;;;;;0.90;0.90;;;;;;;;;;4924378;29;20148;-73
2023/11/13 04:00:07;;;;;;;0.80;0.70;;;;;;;;;;4941398;29;20038;-73
2023/11/13 04:02:38;;;;;;;0.80;0.80;;;;;;;;;;4947494;29;20656;-74
2023/11/13 04:05:06;;;;;;;1.00;1.00;;;;;;;;;;4923882;29;20035;-73
2023/11/13 04:07:33;;;;;;;0.90;0.90;;;;;;;;;;4942584;29;20038;-73
2023/11/13 04:10:00;;;;;;;1.15;1.15;;;;;;;;;;4948982;29;20130;-73
2023/11/13 04:12:28;;;;;;;0.75;0.75;;;;;;;;;;4951894;29;20031;-75
2023/11/13 04:14:54;;;;;;;1.20;1.20;;;;;;;;;;4940782;29;20054;-74
2023/11/13 04:17:20;;;;;;;1.00;1.00;;;;;;;;;;4944523;29;20121;-74
2023/11/13 04:19:46;;;;;;;1.05;1.05;;;;;;;;;;4944960;29;20537;-74
2023/11/13 04:22:12;;;;;;;1.23;1.23;;;;;;;;;;4952094;29;20031;-74
2023/11/13 04:24:38;;;;;;;2.58;1.50;;;;;;;;;;4952294;29;20277;-74
2023/11/13 04:27:05;;;;;;;1.23;1.23;;;;;;;;;;4947798;28;20039;-73
2023/11/13 04:29:31;;;;;;;1.33;1.33;;;;;;;;;;4951444;29;20174;-74
2023/11/13 04:31:57;;;;;;;1.33;1.33;;;;;;;;;;4944806;29;20032;-74
2023/11/13 04:34:23;;;;;;;1.15;1.15;;;;;;;;;;4941705;29;20528;-74
2023/11/13 04:36:49;;;;;;;0.93;0.93;;;;;;;;;;4943610;29;20487;-73
2023/11/13 04:39:15;;;;;;;1.27;1.20;;;;;;;;;;4936873;29;20040;-74
2023/11/13 04:41:43;;;;;;;1.05;1.05;;;;;;;;;;4931988;29;20028;-74
2023/11/13 04:44:09;;;;;;;1.50;1.50;;;;;;;;;;4931548;29;20046;-74
2023/11/13 04:46:35;;;;;;;1.30;1.30;;;;;;;;;;4932343;29;20036;-73
2023/11/13 04:49:01;;;;;;;1.35;1.30;;;;;;;;;;4932250;29;20043;-74
2023/11/13 04:51:27;;;;;;;2.92;1.65;;;;;;;;;;4931389;29;20103;-74
2023/11/13 04:53:53;;;;;;;1.75;1.73;;;;;;;;;;4930879;29;20063;-73
2023/11/13 04:56:20;;;;;;;1.20;1.20;;;;;;;;;;4932800;29;20524;-74
2023/11/13 04:58:46;;;;;;;2.15;1.73;;;;;;;;;;4931486;29;20039;-73
2023/11/13 05:01:12;;;;;;;1.50;1.50;;;;;;;;;;4932894;29;20379;-74
2023/11/13 05:03:38;;;;;;;1.88;1.77;;;;;;;;;;4932331;29;20090;-73
2023/11/13 05:06:04;;;;;;;1.83;1.73;;;;;;;;;;4951862;28;20035;-73
2023/11/13 05:08:30;;;;;;;1.25;1.15;;;;;;;;;;4934530;28;20050;-73
2023/11/13 05:10:56;;;;;;;1.83;1.73;;;;;;;;;;4952119;28;20101;-74
2023/11/13 05:13:23;;;;;;;1.52;1.52;;;;;;;;;;4918993;28;20122;-74
2023/11/13 05:15:49;;;;;;;1.30;1.20;;;;;;;;;;4934843;28;20047;-74
2023/11/13 05:18:16;;;;;;;1.75;1.65;;;;;;;;;;4935133;28;20046;-73
2023/11/13 05:20:45;;;;;;;1.00;1.00;;;;;;;;;;4934652;28;20032;-74
2023/11/13 05:23:12;;;;;;;1.40;1.30;;;;;;;;;;4952460;28;20568;-75
2023/11/13 05:25:39;;;;;;;0.95;0.95;;;;;;;;;;4935024;29;20449;-74
2023/11/13 05:28:08;;;;;;;1.30;1.30;;;;;;;;;;4952539;28;20045;-74
2023/11/13 05:30:40;;;;;;;2.25;2.15;;;;;;;;;;4918605;28;20042;-74
2023/11/13 05:33:06;;;;;;;2.10;2.00;;;;;;;;;;4954547;28;20066;-74
2023/11/13 05:35:32;;;;;;;1.73;1.40;;;;;;;;;;4954580;29;20042;-74
2023/11/13 05:37:58;;;;;;;1.77;1.67;;;;;;;;;;4958449;29;20491;-76
2023/11/13 05:40:25;;;;;;;1.23;1.23;;;;;;;;;;4960833;29;20031;-75
2023/11/13 05:42:52;;;;;;;1.70;1.58;;;;;;;;;;4958794;29;20128;-76
2023/11/13 05:45:18;;;;;;;1.48;1.48;;;;;;;;;;4964081;28;20035;-77
2023/11/13 05:47:44;;;;;;;1.80;1.70;;;;;;;;;;4957717;29;20034;-76
2023/11/13 05:50:10;;;;;;;2.00;1.90;;;;;;;;;;4923507;29;20105;-77
2023/11/13 05:52:36;;;;;;;1.98;1.75;;;;;;;;;;4955593;29;20042;-78
2023/11/13 05:55:02;;;;;;;1.90;1.80;;;;;;;;;;4952075;28;20057;-77
2023/11/13 05:57:30;;;;;;;1.50;1.50;;;;;;;;;;4955006;29;20035;-76
2023/11/13 05:59:56;;;;;;;1.20;1.20;;;;;;;;;;4919752;29;20039;-74
2023/11/13 06:02:23;;;;;;;1.65;1.65;;;;;;;;;;4937210;29;20044;-78
2023/11/13 06:04:49;;;;;;;1.80;1.70;;;;;;;;;;4952376;29;20236;-75
2023/11/13 06:07:15;;;;;;;1.50;1.50;;;;;;;;;;4955381;29;20453;-73
2023/11/13 06:09:44;;;;;;;1.83;1.73;;;;;;;;;;4938814;29;20035;-77
2023/11/13 06:12:10;;;;;;;1.75;1.70;;;;;;;;;;4957012;28;20047;-79
2023/11/13 06:14:38;;;;;;;1.38;1.27;;;;;;;;;;4939425;29;20051;-79
2023/11/13 06:17:05;;;;;;;1.58;1.42;;;;;;;;;;4956224;28;20031;-78
2023/11/13 06:19:31;;;;;;;1.33;1.23;;;;;;;;;;4937523;28;20066;-78
2023/11/13 06:21:57;;;;;;;1.55;1.50;;;;;;;;;;4950962;29;20077;-76
2023/11/13 06:24:23;;;;;;;1.35;1.25;;;;;;;;;;4954723;29;20031;-77
2023/11/13 06:26:49;;;;;;;0.70;0.70;;;;;;;;;;4936721;29;20542;-77
2023/11/13 06:29:15;;;;;;;1.80;1.70;;;;;;;;;;4937139;29;20211;-76
2023/11/13 06:31:41;;;;;;;1.80;1.70;;;;;;;;;;4952968;29;20035;-75
2023/11/13 06:34:07;;;;;;;1.02;1.00;;;;;;;;;;4954235;29;20449;-76
2023/11/13 06:36:34;;;;;;;1.30;1.30;;;;;;;;;;4953821;29;20034;-77
2023/11/13 06:39:01;;;;;;;1.23;0.90;;;;;;;;;;4951062;29;20039;-77
2023/11/13 06:41:27;;;;;;;0.80;0.80;;;;;;;;;;4971958;29;20031;-77
2023/11/13 06:43:53;;;;;;;1.23;1.05;;;;;;;;;;4948404;29;20035;-77
2023/11/13 06:46:20;;;;;;;0.88;0.88;;;;;;;;;;4951787;29;20078;-75
2023/11/13 06:48:48;;;;;;;2.85;1.30;;;;;;;;;;4952131;29;20035;-77
2023/11/13 06:51:15;;;;;;;0.70;0.70;;;;;;;;;;4935545;29;20065;-78
2023/11/13 06:53:41;;;;;;;1.02;1.02;;;;;;;;;;4919558;29;20498;-77
2023/11/13 06:56:09;;;;;;;1.48;1.00;;;;;;;;;;4954324;29;20047;-79
2023/11/13 06:58:36;;;;;;;1.10;1.10;;;;;;;;;;4955339;28;20042;-78
2023/11/13 07:01:07;;;;;;;1.50;1.50;;;;;;;;;;4954315;29;20165;-78
2023/11/13 07:03:33;;;;;;;1.50;1.40;;;;;;;;;;4953617;29;20191;-76
2023/11/13 07:05:59;;;;;;;1.02;1.02;;;;;;;;;;4937401;29;20681;-77
2023/11/13 07:08:26;;;;;;;1.10;1.10;;;;;;;;;;4954084;29;20191;-76
2023/11/13 07:10:52;;;;;;;1.40;1.17;;;;;;;;;;4954824;29;20034;-77
2023/11/13 07:13:18;;;;;;;1.63;1.50;;;;;;;;;;4938607;29;20039;-76
2023/11/13 07:15:45;;;;;;;1.23;1.23;;;;;;;;;;4937131;29;20039;-75
2023/11/13 07:18:11;;;;;;;1.20;1.10;;;;;;;;;;4954054;29;20039;-76
2023/11/13 07:20:38;;;;;;;0.90;0.90;;;;;;;;;;4952425;29;20042;-76
2023/11/13 07:23:05;;;;;;;1.60;1.50;;;;;;;;;;4918100;29;20032;-76
2023/11/13 07:25:32;;;;;;;1.13;1.10;;;;;;;;;;4931473;29;20038;-75
2023/11/13 07:27:58;;;;;;;1.52;1.30;;;;;;;;;;4936887;29;20126;-78
2023/11/13 07:30:25;;;;;;;0.73;0.73;;;;;;;;;;4935984;29;20122;-74
2023/11/13 07:32:52;;;;;;;1.00;1.00;;;;;;;;;;4935516;28;20047;-74
2023/11/13 07:35:18;;;;;;;0.63;0.63;;;;;;;;;;4952666;28;20043;-74
2023/11/13 07:37:45;;;;;;;1.17;1.17;;;;;;;;;;4903946;28;20039;-74
2023/11/13 07:40:13;;;;;;;1.10;1.10;;;;;;;;;;4952543;29;20126;-73
2023/11/13 07:42:40;;;;;;;1.00;1.00;;;;;;;;;;4952804;29;20037;-74
2023/11/13 07:45:09;;;;;;;0.90;0.90;;;;;;;;;;4934763;29;20082;-74
2023/11/13 07:47:35;;;;;;;1.10;1.10;;;;;;;;;;4933309;29;20046;-74
2023/11/13 07:50:01;;;;;;;1.20;1.20;;;;;;;;;;4933327;29;20055;-73
2023/11/13 07:52:28;;;;;;;1.98;1.40;;;;;;;;;;4933476;29;20039;-73
2023/11/13 07:54:55;;;;;;;2.35;1.25;;;;;;;;;;4932841;29;20079;-75
2023/11/13 07:57:21;;;;;;;1.40;1.40;;;;;;;;;;4934187;29;20516;-76
2023/11/13 07:59:48;;;;;;;1.67;1.60;;;;;;;;;;4934123;29;20047;-76
2023/11/13 08:02:14;;;;;;;1.58;1.48;;;;;;;;;;4935776;29;20036;-75
2023/11/13 08:04:40;;;;;;;1.23;1.20;;;;;;;;;;4933898;29;20542;-75
2023/11/13 08:07:06;;;;;;;1.27;1.27;;;;;;;;;;4949697;29;20041;-75
2023/11/13 08:09:33;;;;;;;1.40;1.40;;;;;;;;;;4951367;28;20506;-75
2023/11/13 08:12:01;;;;;;;1.60;1.50;;;;;;;;;;4951394;29;20031;-74
2023/11/13 08:14:28;;;;;;;1.55;1.55;;;;;;;;;;4951115;29;20457;-73
2023/11/13 08:16:54;;;;;;;1.42;1.33;;;;;;;;;;4934027;29;20121;-74
2023/11/13 08:19:20;;;;;;;1.45;1.40;;;;;;;;;;4918990;29;20047;-74
2023/11/13 08:21:46;;;;;;;1.45;1.45;;;;;;;;;;4937624;29;20235;-74
2023/11/13 08:24:12;;;;;;;1.30;1.30;;;;;;;;;;4951854;29;20047;-75
2023/11/13 08:26:40;;;;;;;1.20;1.10;;;;;;;;;;4951450;29;20410;-76
2023/11/13 08:29:09;;;;;;;0.98;0.98;;;;;;;;;;4934202;29;20027;-73
2023/11/13 08:31:35;;;;;;;1.30;1.20;;;;;;;;;;4934234;29;20034;-73
2023/11/13 08:34:00;;;;;;;1.30;1.23;;;;;;;;;;4934406;29;20043;-74
2023/11/13 08:36:28;;;;;;;0.93;0.93;;;;;;;;;;4934107;29;20122;-73
2023/11/13 08:38:54;;;;;;;1.17;1.15;;;;;;;;;;4934007;29;20035;-74
2023/11/13 08:41:21;;;;;;;1.60;1.50;;;;;;;;;;4933877;29;20071;-74
2023/11/13 08:43:48;;;;;;;1.10;1.10;;;;;;;;;;4951194;28;20107;-73
2023/11/13 08:46:14;;;;;;;1.27;1.23;;;;;;;;;;4934273;29;20125;-73
2023/11/13 08:48:40;;;;;;;1.13;1.13;;;;;;;;;;4950075;29;20037;-73
2023/11/13 08:51:07;;;;;;;1.17;1.17;;;;;;;;;;4950948;29;20154;-72
2023/11/13 08:53:42;;;;;;;1.70;1.60;;;;;;;;;;4934546;29;20611;-73
2023/11/13 08:56:21;;;;;;;1.15;1.15;;;;;;;;;;4951643;29;20039;-74
2023/11/13 08:58:47;;;;;;;1.15;1.15;;;;;;;;;;4949790;29;20031;-73
2023/11/13 09:01:15;;;;;;;1.23;1.10;;;;;;;;;;4933836;29;20099;-74
2023/11/13 09:03:42;;;;;;;4.55;1.35;;;;;;;;;;4934316;29;20047;-74
2023/11/13 09:06:09;;;;;;;2.05;1.15;;;;;;;;;;4933536;29;20414;-75
2023/11/13 09:08:36;;;;;;;0.93;0.93;;;;;;;;;;4951212;29;20039;-75
2023/11/13 09:11:04;;;;;;;1.17;1.17;;;;;;;;;;4950713;29;20142;-75
2023/11/13 09:13:30;;;;;;;1.00;1.00;;;;;;;;;;4950950;29;20043;-74
2023/11/13 09:15:56;;;;;;;3.30;1.38;;;;;;;;;;4933421;29;20520;-75
2023/11/13 09:18:26;;;;;;;1.20;1.17;;;;;;;;;;4913782;29;20040;-75
2023/11/13 09:20:55;;;;;;;1.08;1.08;;;;;;;;;;4944847;28;20043;-75
2023/11/13 09:23:24;;;;;;;1.00;1.00;;;;;;;;;;4951207;29;20039;-74
2023/11/13 09:25:50;;;;;;;1.17;1.13;;;;;;;;;;4954396;29;20110;-74
2023/11/13 09:28:16;;;;;;;0.90;0.90;;;;;;;;;;4938008;29;20502;-72
2023/11/13 09:30:42;;;;;;;0.80;0.80;;;;;;;;;;4956286;29;20027;-73
2023/11/13 09:33:10;;;;;;;0.90;0.90;;;;;;;;;;4946738;29;20043;-75
2023/11/13 09:35:37;;;;;;;1.00;1.00;;;;;;;;;;4970270;29;20046;-75
2023/11/13 09:38:03;;;;;;;1.13;1.13;;;;;;;;;;4939865;29;20047;-73
2023/11/13 09:40:36;;;;;;;0.82;0.82;;;;;;;;;;4953963;29;20031;-74
2023/11/13 09:43:34;;;;;;;1.02;1.02;;;;;;;;;;4938231;29;20035;-74
2023/11/13 09:46:06;;;;;;;0.88;0.88;;;;;;;;;;4932275;29;20426;-72
2023/11/13 09:48:34;;;;;;;2.60;1.27;;;;;;;;;;4945127;29;20032;-72
2023/11/13 09:51:00;;;;;;;1.00;1.00;;;;;;;;;;4934691;29;20067;-72
2023/11/13 09:53:27;;;;;;;0.88;0.88;;;;;;;;;;4951397;29;20177;-73
2023/11/13 09:55:53;;;;;;;1.20;0.90;;;;;;;;;;4936831;28;20035;-74
2023/11/13 09:58:19;;;;;;;1.05;1.05;;;;;;;;;;4936979;29;20494;-74
2023/11/13 10:00:45;;;;;;;1.40;1.40;;;;;;;;;;4948719;29;20115;-74
2023/11/13 10:03:14;;;;;;;1.10;1.10;;;;;;;;;;4933554;29;20067;-74
2023/11/13 10:05:43;;;;;;;1.20;1.20;;;;;;;;;;4952190;29;20382;-72
2023/11/13 10:08:09;;;;;;;0.93;0.93;;;;;;;;;;4936780;29;20039;-73
2023/11/13 10:10:39;;;;;;;1.17;1.17;;;;;;;;;;4920674;29;20049;-73
2023/11/13 10:13:10;;;;;;;1.50;1.40;;;;;;;;;;4935233;29;20098;-73
2023/11/13 10:15:36;;;;;;;1.25;1.25;;;;;;;;;;4943781;29;20067;-74
2023/11/13 10:18:04;;;;;;;1.70;1.60;;;;;;;;;;4938799;29;20035;-72
2023/11/13 10:20:30;;;;;;;1.10;1.10;;;;;;;;;;4929041;29;20070;-73
2023/11/13 10:23:03;;;;;;;1.30;1.30;;;;;;;;;;4935297;29;20075;-73
2023/11/13 10:25:39;;;;;;;1.23;1.23;;;;;;;;;;4936890;29;20042;-73
2023/11/13 10:28:08;;;;;;;1.40;1.40;;;;;;;;;;4954049;29;20038;-72
2023/11/13 10:30:36;;;;;;;1.52;1.35;;;;;;;;;;4953413;29;20063;-72
2023/11/13 10:33:15;;;;;;;1.42;1.20;;;;;;;;;;4935616;29;20039;-73
2023/11/13 10:35:44;;;;;;;1.50;1.50;;;;;;;;;;4953421;29;20413;-73
2023/11/13 10:38:14;;;;;;;0.95;0.95;;;;;;;;;;4952510;29;20073;-74
2023/11/13 10:40:44;;;;;;;1.08;1.08;;;;;;;;;;4952102;29;20142;-74
2023/11/13 10:43:11;;;;;;;2.42;1.48;;;;;;;;;;4936511;29;20043;-73
2023/11/13 10:45:47;;;;;;;1.13;1.05;;;;;;;;;;4936245;29;20062;-73
2023/11/13 10:48:14;;;;;;;0.85;0.85;;;;;;;;;;4953367;29;20038;-73
2023/11/13 10:50:40;;;;;;;1.05;1.05;;;;;;;;;;4948375;28;20060;-73
2023/11/13 10:53:06;;;;;;;1.02;1.02;;;;;;;;;;4930988;29;20046;-73
2023/11/13 10:55:33;;;;;;;1.17;1.08;;;;;;;;;;4952633;29;20038;-72
2023/11/13 10:57:59;;;;;;;3.05;1.55;;;;;;;;;;4931234;29;20031;-74
2023/11/13 11:00:29;;;;;;;1.33;1.33;;;;;;;;;;4936354;29;20514;-73
2023/11/13 11:02:56;;;;;;;1.30;1.27;;;;;;;;;;4935822;29;20215;-73
2023/11/13 11:05:22;;;;;;;1.10;1.10;;;;;;;;;;4935897;29;20047;-73
2023/11/13 11:07:57;;;;;;;1.10;1.08;;;;;;;;;;4935221;29;20138;-73
2023/11/13 11:10:24;;;;;;;1.88;0.80;;;;;;;;;;4935743;29;20033;-73
2023/11/13 11:12:53;;;;;;;1.52;1.10;;;;;;;;;;4953058;29;20039;-74
2023/11/13 11:15:25;;;;;;;1.20;1.20;;;;;;;;;;4948031;29;20056;-73
2023/11/13 11:18:09;;;;;;;1.33;1.17;;;;;;;;;;4934595;29;20038;-73
2023/11/13 11:20:55;;;;;;;0.90;0.90;;;;;;;;;;4925367;29;20051;-74
2023/11/13 11:23:22;;;;;;;3.60;1.40;;;;;;;;;;4955872;29;20043;-73
2023/11/13 11:25:51;;;;;;;1.55;1.27;;;;;;;;;;4955407;29;20035;-72
2023/11/13 11:28:36;;;;;;;1.15;1.15;;;;;;;;;;4956600;29;20035;-71
2023/11/13 11:31:04;;;;;;;1.50;1.40;;;;;;;;;;4937398;29;20039;-72
2023/11/13 11:33:31;;;;;;;1.40;1.33;;;;;;;;;;4953138;29;20105;-72
2023/11/13 11:35:57;;;;;;;1.10;1.10;;;;;;;;;;4952205;29;20046;-73
2023/11/13 11:38:26;;;;;;;1.45;1.35;;;;;;;;;;4952525;29;20114;-71
2023/11/13 11:40:53;;;;;;;1.50;1.40;;;;;;;;;;4951159;29;20039;-73
2023/11/13 11:43:28;;;;;;;1.40;1.30;;;;;;;;;;4935324;29;20113;-74
2023/11/13 11:45:54;;;;;;;1.50;1.42;;;;;;;;;;4935285;29;20077;-74
2023/11/13 11:48:23;;;;;;;1.33;1.27;;;;;;;;;;4934545;29;20043;-74
2023/11/13 11:51:06;;;;;;;1.50;1.40;;;;;;;;;;4951973;29;20062;-74
2023/11/13 11:53:32;;;;;;;3.55;2.30;;;;;;;;;;4952532;28;20035;-74
2023/11/13 11:55:58;;;;;;;1.20;1.20;;;;;;;;;;4952167;28;20047;-73
2023/11/13 11:58:24;;;;;;;1.30;1.30;;;;;;;;;;4934498;29;20498;-74
2023/11/13 12:00:51;;;;;;;1.27;1.17;;;;;;;;;;4935363;29;20039;-73
2023/11/13 12:03:17;;;;;;;1.20;1.20;;;;;;;;;;4929757;29;20517;-76
2023/11/13 12:05:43;;;;;;;1.40;1.30;;;;;;;;;;4947499;29;20059;-74
2023/11/13 12:08:11;;;;;;;1.48;1.42;;;;;;;;;;4919119;29;20450;-74
2023/11/13 12:10:38;;;;;;;2.65;1.52;;;;;;;;;;4951734;29;20043;-74
2023/11/13 12:13:06;;;;;;;1.75;1.65;;;;;;;;;;4915437;29;20031;-72
2023/11/13 12:15:32;;;;;;;3.30;1.70;;;;;;;;;;4948053;29;20458;-73
2023/11/13 12:17:58;;;;;;;3.90;2.22;;;;;;;;;;4918803;29;20118;-73
2023/11/13 12:20:27;;;;;;;2.67;1.95;;;;;;;;;;4951214;29;20051;-72
2023/11/13 12:22:55;;;;;;;3.72;1.67;;;;;;;;;;4952124;29;20063;-73
2023/11/13 12:25:22;;;;;;;2.83;2.03;;;;;;;;;;4952879;29;20039;-72
2023/11/13 12:27:48;;;;;;;1.70;1.60;;;;;;;;;;4937701;28;20031;-72
2023/11/13 12:30:19;;;;;;;3.25;1.50;;;;;;;;;;4958675;28;20103;-72
2023/11/13 12:32:51;;;;;;;2.03;1.83;;;;;;;;;;4937920;29;20042;-72
2023/11/13 12:35:17;;;;;;;1.80;1.70;;;;;;;;;;4948813;28;20061;-74
2023/11/13 12:37:44;;;;;;;2.17;1.58;;;;;;;;;;4928900;29;20069;-73
2023/11/13 12:40:30;;;;;;;1.63;1.52;;;;;;;;;;4931715;29;20063;-73
2023/11/13 12:42:57;;;;;;;1.60;1.60;;;;;;;;;;4947751;28;20114;-73
2023/11/13 12:45:23;;;;;;;2.00;1.80;;;;;;;;;;4931294;29;20043;-72
2023/11/13 12:47:50;;;;;;;2.10;1.90;;;;;;;;;;4948329;29;20031;-73
2023/11/13 12:50:16;;;;;;;2.60;2.00;;;;;;;;;;4949972;28;20086;-71
2023/11/13 12:52:43;;;;;;;2.08;1.88;;;;;;;;;;4936131;28;20081;-74
2023/11/13 12:55:21;;;;;;;1.60;1.50;;;;;;;;;;4953565;28;20047;-73
2023/11/13 12:58:11;;;;;;;1.35;1.35;;;;;;;;;;4949866;29;20035;-74
2023/11/13 13:00:38;;;;;;;1.38;1.27;;;;;;;;;;4959878;28;20026;-74
2023/11/13 13:03:04;;;;;;;1.77;1.67;;;;;;;;;;4924911;29;20039;-74
2023/11/13 13:05:30;;;;;;;1.33;1.33;;;;;;;;;;4957420;28;20312;-73
2023/11/13 13:07:57;;;;;;;1.52;1.45;;;;;;;;;;4953564;28;20039;-73
2023/11/13 13:10:23;;;;;;;3.50;1.60;;;;;;;;;;4956719;28;20038;-74
2023/11/13 13:12:50;;;;;;;3.13;1.90;;;;;;;;;;4958496;28;20046;-73
2023/11/13 13:15:16;;;;;;;2.03;1.92;;;;;;;;;;4960791;28;20051;-72
2023/11/13 13:17:44;;;;;;;1.90;1.80;;;;;;;;;;4938836;29;20035;-73
2023/11/13 13:20:18;;;;;;;2.00;1.65;;;;;;;;;;4956372;29;20043;-74
2023/11/13 13:22:46;;;;;;;1.73;1.63;;;;;;;;;;4937558;29;20030;-73
2023/11/13 13:25:13;;;;;;;3.17;1.50;;;;;;;;;;4936044;29;20044;-73
2023/11/13 13:27:39;;;;;;;1.58;1.50;;;;;;;;;;4946530;28;20099;-74
2023/11/13 13:30:06;;;;;;;1.60;1.50;;;;;;;;;;4956897;29;20127;-73
2023/11/13 13:32:33;;;;;;;1.20;1.20;;;;;;;;;;4934948;29;20090;-74
2023/11/13 13:35:00;;;;;;;1.30;1.30;;;;;;;;;;4926220;29;20049;-72
2023/11/13 13:37:27;;;;;;;1.67;1.58;;;;;;;;;;4954239;29;20077;-72
2023/11/13 13:39:55;;;;;;;1.70;1.60;;;;;;;;;;4943651;29;20138;-73
2023/11/13 13:42:21;;;;;;;1.88;1.63;;;;;;;;;;4952656;28;20035;-74
2023/11/13 13:44:47;;;;;;;1.70;1.60;;;;;;;;;;4957064;28;20035;-73
2023/11/13 13:47:14;;;;;;;1.92;1.83;;;;;;;;;;4955800;29;20035;-73
2023/11/13 13:49:40;;;;;;;3.38;1.60;;;;;;;;;;4940058;29;20046;-72
2023/11/13 13:52:06;;;;;;;1.23;1.17;;;;;;;;;;4958436;28;20066;-72
2023/11/13 13:54:32;;;;;;;1.42;1.42;;;;;;;;;;4953188;28;20039;-72
2023/11/13 13:56:58;;;;;;;1.65;1.55;;;;;;;;;;4934225;29;20097;-72
2023/11/13 13:59:25;;;;;;;1.48;1.40;;;;;;;;;;4953881;29;20114;-72
2023/11/13 14:01:52;;;;;;;1.52;1.52;;;;;;;;;;4935272;28;20045;-73
2023/11/13 14:04:18;;;;;;;1.38;1.35;;;;;;;;;;4958205;28;20047;-72
2023/11/13 14:06:46;;;;;;;1.80;1.70;;;;;;;;;;4950113;28;20117;-73
2023/11/13 14:09:16;;;;;;;1.45;1.35;;;;;;;;;;4952634;29;20035;-73
2023/11/13 14:11:42;;;;;;;7.13;2.07;;;;;;;;;;4952319;29;20045;-73
2023/11/13 14:14:10;;;;;;;1.75;1.65;;;;;;;;;;4953509;29;20102;-73
2023/11/13 14:16:37;;;;;;;1.88;1.50;;;;;;;;;;4921657;29;20035;-73
2023/11/13 14:19:06;;;;;;;4.50;1.48;;;;;;;;;;4955076;29;20118;-75
2023/11/13 14:21:33;;;;;;;2.08;1.30;;;;;;;;;;4956472;28;20410;-76
2023/11/13 14:24:03;;;;;;;2.00;1.90;;;;;;;;;;4954228;29;20192;-73
2023/11/13 14:26:29;;;;;;;2.25;1.90;;;;;;;;;;4954158;29;20094;-73
2023/11/13 14:28:55;;;;;;;2.50;1.83;;;;;;;;;;4954086;29;20035;-73
2023/11/13 14:31:21;;;;;;;2.00;1.90;;;;;;;;;;4953293;29;20035;-73
2023/11/13 14:33:47;;;;;;;3.42;1.98;;;;;;;;;;4955508;29;20050;-71
2023/11/13 14:36:13;;;;;;;5.82;2.33;;;;;;;;;;4954968;29;20089;-72
2023/11/13 14:38:39;;;;;;;1.88;1.77;;;;;;;;;;4953117;29;20027;-72
2023/11/13 14:41:08;;;;;;;2.08;1.98;;;;;;;;;;4953437;29;20079;-72
2023/11/13 14:43:34;;;;;;;2.38;2.05;;;;;;;;;;4919728;29;20537;-72